Time;durP1;ratioP1;P1;durP2;ratioP2;P2;SDS_P1;SDS_P2;PMS_P1;PMS_P2;Temp;Humidity;BMP_temperature;BMP_pressure;BME280_temperature;BME280_humidity;BME280_pressure;Samples;Min_cycle;Max_cycle;Signal;HPM_P1;HPM_P2
2021/12/26 00:01:18;;;;;;;24.23;15.00;;;;;;;5.20;100.00;95396.03;5022415;28;20522;-47
2021/12/26 00:03:47;;;;;;;27.40;15.80;;;;;;;5.18;100.00;95390.13;5017599;28;20085;-54
2021/12/26 00:06:18;;;;;;;25.80;15.32;;;;;;;5.19;100.00;95395.19;5041878;28;20083;-49
2021/12/26 00:08:49;;;;;;;28.90;15.43;;;;;;;5.42;100.00;95393.13;5041225;28;20064;-48
2021/12/26 00:11:19;;;;;;;29.73;16.88;;;;;;;5.00;100.00;95389.97;5040313;28;20519;-44
2021/12/26 00:13:50;;;;;;;30.02;15.63;;;;;;;4.96;100.00;95386.00;5045338;28;20092;-47
2021/12/26 00:16:18;;;;;;;28.35;14.35;;;;;;;4.99;100.00;95383.13;5045881;28;20099;-49
2021/12/26 00:18:47;;;;;;;34.78;18.73;;;;;;;4.60;100.00;95382.22;5048410;28;20118;-46
2021/12/26 00:21:18;;;;;;;25.70;15.15;;;;;;;5.28;100.00;95379.66;5021264;28;20617;-50
2021/12/26 00:23:47;;;;;;;25.92;15.20;;;;;;;4.86;100.00;95383.38;5042109;28;20083;-50
2021/12/26 00:26:16;;;;;;;24.20;14.55;;;;;;;5.00;100.00;95382.16;5041527;28;20064;-45
2021/12/26 00:28:45;;;;;;;26.83;16.83;;;;;;;4.76;100.00;95385.97;5040781;28;20075;-47
2021/12/26 00:31:16;;;;;;;27.25;17.00;;;;;;;5.30;100.00;95383.78;5044712;28;20739;-50
2021/12/26 00:33:45;;;;;;;24.52;15.15;;;;;;;5.30;100.00;95388.19;5044986;28;21323;-54
2021/12/26 00:36:13;;;;;;;25.02;15.75;;;;;;;5.12;100.00;95396.72;5043358;28;20096;-48
2021/12/26 00:38:42;;;;;;;24.70;15.48;;;;;;;5.15;100.00;95393.00;5043617;28;20115;-48
2021/12/26 00:41:11;;;;;;;26.00;15.45;;;;;;;4.77;100.00;95397.22;5045137;28;20073;-55
2021/12/26 00:43:39;;;;;;;23.08;14.82;;;;;;;4.91;100.00;95391.59;5040510;28;20067;-43
2021/12/26 00:46:09;;;;;;;23.52;15.48;;;;;;;4.88;100.00;95389.28;5024692;28;20089;-51
2021/12/26 00:48:37;;;;;;;24.55;16.20;;;;;;;5.13;100.00;95393.16;5044260;28;20071;-46
2021/12/26 00:51:06;;;;;;;20.63;13.68;;;;;;;5.25;100.00;95383.38;5040410;28;20488;-55
2021/12/26 00:53:34;;;;;;;23.02;13.57;;;;;;;5.06;100.00;95393.81;5043327;28;20065;-49
2021/12/26 00:56:02;;;;;;;24.92;16.52;;;;;;;5.17;100.00;95389.28;5040363;28;20076;-45
2021/12/26 00:58:31;;;;;;;24.63;15.73;;;;;;;5.12;100.00;95391.47;5037422;28;20084;-47
2021/12/26 01:01:00;;;;;;;20.60;14.40;;;;;;;5.28;100.00;95384.91;5046644;28;20081;-44
2021/12/26 01:03:30;;;;;;;25.33;14.82;;;;;;;5.07;100.00;95393.69;5021072;28;20103;-46
2021/12/26 01:05:59;;;;;;;23.23;14.50;;;;;;;5.18;100.00;95393.56;5012936;28;20448;-50
2021/12/26 01:08:30;;;;;;;19.50;14.07;;;;;;;4.61;100.00;95391.69;5018665;28;20077;-44
2021/12/26 01:11:02;;;;;;;19.30;13.50;;;;;;;5.02;100.00;95393.25;5020419;28;20083;-51
2021/12/26 01:13:33;;;;;;;16.90;12.13;;;;;;;4.90;100.00;95391.75;5040717;28;20096;-50
2021/12/26 01:16:06;;;;;;;14.10;10.85;;;;;;;4.84;100.00;95400.13;5042502;28;20076;-51
2021/12/26 01:18:40;;;;;;;13.50;10.68;;;;;;;4.94;100.00;95403.59;5040355;28;20076;-48
2021/12/26 01:21:17;;;;;;;15.05;11.70;;;;;;;4.89;100.00;95401.38;5043875;28;20064;-45
2021/12/26 01:23:48;;;;;;;13.85;10.75;;;;;;;4.98;100.00;95399.72;5019976;28;20076;-51
2021/12/26 01:26:18;;;;;;;14.73;10.85;;;;;;;5.11;100.00;95399.47;5015192;28;20072;-45
2021/12/26 01:28:46;;;;;;;12.95;10.32;;;;;;;4.95;100.00;95400.81;5025926;28;20091;-46
2021/12/26 01:31:19;;;;;;;13.15;11.30;;;;;;;4.87;100.00;95405.91;5042962;28;20487;-46
2021/12/26 01:33:52;;;;;;;13.07;11.48;;;;;;;4.94;100.00;95401.78;5043351;28;20570;-43
2021/12/26 01:36:20;;;;;;;13.88;10.65;;;;;;;5.11;100.00;95399.47;5037920;28;20064;-51
2021/12/26 01:38:48;;;;;;;15.25;11.85;;;;;;;4.91;100.00;95404.66;5022911;28;20071;-45
2021/12/26 01:41:18;;;;;;;14.68;12.43;;;;;;;5.10;100.00;95403.88;5019091;28;20688;-44
2021/12/26 01:43:48;;;;;;;12.98;10.88;;;;;;;5.12;100.00;95401.94;5020856;28;20060;-51
2021/12/26 01:46:17;;;;;;;;;;;;;;;4.55;100.00;95400.09;5045977;28;20077;-49
2021/12/26 01:48:45;;;;;;;14.32;10.80;;;;;;;4.75;100.00;95410.44;5044660;28;19963;-46
2021/12/26 01:51:15;;;;;;;12.85;10.40;;;;;;;4.71;100.00;95408.22;5043518;28;20072;-45
2021/12/26 01:53:44;;;;;;;14.10;11.30;;;;;;;4.51;100.00;95407.38;5041887;28;20570;-47
2021/12/26 01:56:13;;;;;;;13.15;10.05;;;;;;;4.59;100.00;95398.84;5032883;28;20077;-45
2021/12/26 01:58:42;;;;;;;14.88;11.05;;;;;;;4.47;100.00;95409.41;5013712;28;20076;-49
2021/12/26 02:01:13;;;;;;;15.10;11.80;;;;;;;4.47;100.00;95404.19;5017121;28;20096;-47
2021/12/26 02:03:42;;;;;;;13.98;10.20;;;;;;;4.53;100.00;95408.84;5018284;28;20065;-50
2021/12/26 02:06:11;;;;;;;14.23;11.30;;;;;;;4.37;100.00;95415.53;5043057;28;20079;-50
2021/12/26 02:08:41;;;;;;;13.10;10.68;;;;;;;3.98;100.00;95411.00;5043212;28;20582;-49
2021/12/26 02:11:10;;;;;;;12.27;9.95;;;;;;;4.20;100.00;95411.78;5026801;28;20060;-47
2021/12/26 02:13:38;;;;;;;12.60;9.82;;;;;;;4.16;100.00;95411.19;5024169;28;20064;-52
2021/12/26 02:16:07;;;;;;;12.82;10.50;;;;;;;4.28;100.00;95417.16;5041700;28;20083;-46
2021/12/26 02:18:38;;;;;;;12.95;9.95;;;;;;;4.31;100.00;95409.09;5014269;28;20072;-47
2021/12/26 02:21:19;;;;;;;12.57;10.30;;;;;;;4.29;100.00;95400.56;5014284;28;20076;-50
2021/12/26 02:23:55;;;;;;;12.10;10.00;;;;;;;4.29;100.00;95400.56;5020119;28;20087;-46
2021/12/26 02:29:09;;;;;;;12.32;10.40;;;;;;;4.33;100.00;95399.31;5013608;28;20057;-49
2021/12/26 02:31:38;;;;;;;12.63;10.27;;;;;;;3.89;100.00;95396.16;5016058;28;20066;-48
2021/12/26 02:34:06;;;;;;;13.25;9.80;;;;;;;3.95;100.00;95386.94;5017701;28;20085;-51
2021/12/26 02:36:36;;;;;;;11.23;9.30;;;;;;;4.15;100.00;95391.28;5039144;28;20068;-47
2021/12/26 02:39:05;;;;;;;12.33;9.60;;;;;;;4.11;100.00;95389.09;5038453;28;20080;-53
2021/12/26 02:41:33;;;;;;;12.73;9.52;;;;;;;3.84;100.00;95390.47;5044250;28;20491;-47
2021/12/26 02:44:01;;;;;;;12.63;9.40;;;;;;;3.87;100.00;95390.22;5043269;28;20570;-53
2021/12/26 02:46:30;;;;;;;14.15;10.52;;;;;;;3.74;100.00;95395.63;5040603;28;20087;-45
2021/12/26 02:48:58;;;;;;;11.88;9.25;;;;;;;3.90;100.00;95392.56;5045300;28;20547;-50
2021/12/26 02:51:27;;;;;;;12.45;10.48;;;;;;;3.93;100.00;95384.50;5043744;28;20064;-48
2021/12/26 02:53:57;;;;;;;13.70;10.90;;;;;;;3.90;100.00;95396.97;5020778;28;20056;-47
2021/12/26 02:56:26;;;;;;;13.23;10.15;;;;;;;3.70;100.00;95393.44;5013002;28;20073;-49
2021/12/26 02:58:54;;;;;;;11.70;9.70;;;;;;;3.82;100.00;95395.00;5015470;28;20074;-52
2021/12/26 03:01:26;;;;;;;12.88;10.20;;;;;;;3.99;100.00;95394.41;5016304;28;20081;-45
2021/12/26 03:03:54;;;;;;;12.07;9.30;;;;;;;3.94;100.00;95393.97;5043110;28;20084;-47
2021/12/26 03:06:28;;;;;;;12.10;9.23;;;;;;;3.64;100.00;95392.16;5041136;28;20070;-46
2021/12/26 03:09:00;;;;;;;11.73;10.30;;;;;;;3.75;100.00;95391.25;5045863;28;20511;-54
2021/12/26 03:11:28;;;;;;;12.40;10.82;;;;;;;3.69;100.00;95397.81;5046866;28;20060;-46
2021/12/26 03:13:57;;;;;;;11.88;9.63;;;;;;;3.98;100.00;95399.75;5040936;28;20068;-51
2021/12/26 03:16:25;;;;;;;11.13;9.48;;;;;;;3.64;100.00;95397.34;5040609;28;20072;-49
2021/12/26 03:18:57;;;;;;;11.48;9.45;;;;;;;4.19;100.00;95399.69;5046746;28;20072;-50
2021/12/26 03:21:25;;;;;;;11.82;10.05;;;;;;;4.04;100.00;95394.81;5037937;28;20091;-44
2021/12/26 03:23:53;;;;;;;11.23;9.23;;;;;;;4.43;100.00;95394.13;5040034;28;20477;-53
2021/12/26 03:26:23;;;;;;;11.65;10.43;;;;;;;3.98;100.00;95402.34;5043472;28;20072;-51
2021/12/26 03:28:52;;;;;;;14.05;10.48;;;;;;;4.25;100.00;95393.94;5049117;28;20075;-56
2021/12/26 03:31:20;;;;;;;11.00;9.02;;;;;;;4.03;100.00;95401.00;5040911;28;20526;-46
2021/12/26 03:33:48;;;;;;;12.75;10.13;;;;;;;3.94;100.00;95407.00;5043172;28;20479;-51
2021/12/26 03:36:17;;;;;;;11.98;9.57;;;;;;;4.14;100.00;95412.31;5025581;28;20061;-48
2021/12/26 03:38:46;;;;;;;11.43;9.20;;;;;;;3.82;100.00;95413.25;5016337;28;20095;-48
2021/12/26 03:41:14;;;;;;;13.45;11.05;;;;;;;3.43;100.00;95418.22;5025768;28;20073;-50
2021/12/26 03:43:46;;;;;;;12.07;10.25;;;;;;;3.64;100.00;95418.22;5041929;28;20099;-47
2021/12/26 03:46:14;;;;;;;11.50;9.13;;;;;;;3.80;100.00;95425.59;5045043;28;20144;-44
2021/12/26 03:48:43;;;;;;;14.63;11.05;;;;;;;3.29;100.00;95427.16;5018289;28;20061;-51
2021/12/26 03:51:11;;;;;;;11.75;9.35;;;;;;;3.45;100.00;95423.31;5037709;28;20068;-49
2021/12/26 03:53:40;;;;;;;10.95;8.80;;;;;;;3.67;100.00;95423.19;5044193;28;20125;-49
2021/12/26 03:56:08;;;;;;;12.23;8.40;;;;;;;3.40;100.00;95415.03;5045849;28;20073;-52
2021/12/26 03:58:38;;;;;;;11.88;8.52;;;;;;;3.65;100.00;95413.81;5040686;28;20069;-47
2021/12/26 04:01:07;;;;;;;11.65;9.65;;;;;;;3.31;100.00;95416.63;5021372;28;20064;-55
2021/12/26 04:03:36;;;;;;;11.07;8.20;;;;;;;3.40;100.00;95420.25;5044077;28;20073;-46
2021/12/26 04:06:05;;;;;;;12.07;9.27;;;;;;;3.38;100.00;95419.56;5029130;28;20073;-50
2021/12/26 04:08:33;;;;;;;11.18;9.68;;;;;;;3.15;100.00;95422.25;5032555;28;20079;-50
2021/12/26 04:11:01;;;;;;;12.25;9.25;;;;;;;3.59;100.00;95416.97;5042568;28;20060;-47
2021/12/26 04:13:30;;;;;;;11.25;8.85;;;;;;;3.50;100.00;95421.16;5026350;28;20065;-48
2021/12/26 04:15:59;;;;;;;10.55;8.07;;;;;;;3.42;100.00;95419.19;5056252;28;20083;-50
2021/12/26 04:18:29;;;;;;;12.07;9.63;;;;;;;3.58;100.00;95421.34;5038960;28;20067;-46
2021/12/26 04:20:57;;;;;;;11.57;9.18;;;;;;;3.77;100.00;95418.84;5044063;28;20065;-51
2021/12/26 04:23:25;;;;;;;12.20;8.98;;;;;;;3.65;100.00;95422.50;5041234;28;20068;-54
2021/12/26 04:25:54;;;;;;;11.52;9.10;;;;;;;3.94;100.00;95429.66;5039075;28;20077;-48
2021/12/26 04:28:22;;;;;;;11.18;9.48;;;;;;;3.82;100.00;95428.91;5022355;28;20081;-48
2021/12/26 04:30:53;;;;;;;12.87;9.97;;;;;;;3.32;100.00;95429.53;5042952;28;20077;-51
2021/12/26 04:33:22;;;;;;;12.53;10.30;;;;;;;3.54;100.00;95438.19;5017473;28;20080;-47
2021/12/26 04:35:52;;;;;;;11.25;9.60;;;;;;;3.28;100.00;95432.50;5023545;28;20506;-47
2021/12/26 04:38:20;;;;;;;12.80;9.93;;;;;;;3.77;100.00;95433.66;5023214;28;20076;-45
2021/12/26 04:40:51;;;;;;;13.50;10.88;;;;;;;3.50;100.00;95440.22;5012590;28;20072;-46
2021/12/26 04:43:22;;;;;;;11.70;9.80;;;;;;;3.50;100.00;95429.78;5034335;28;20073;-44
2021/12/26 04:45:50;;;;;;;12.63;9.02;;;;;;;3.26;100.00;95424.81;5042234;28;20072;-50
2021/12/26 04:48:19;;;;;;;14.48;10.82;;;;;;;2.97;100.00;95421.97;5039259;28;20060;-47
2021/12/26 04:50:48;;;;;;;12.50;10.10;;;;;;;3.00;100.00;95429.53;5040913;28;20069;-49
2021/12/26 04:53:18;;;;;;;15.18;12.23;;;;;;;3.22;100.00;95415.59;5029977;28;20087;-50
2021/12/26 04:55:46;;;;;;;14.23;10.40;;;;;;;2.92;100.00;95425.88;5016022;28;20057;-48
2021/12/26 04:58:15;;;;;;;12.82;10.38;;;;;;;2.95;100.00;95423.03;5014540;28;20077;-51
2021/12/26 05:00:43;;;;;;;13.95;9.48;;;;;;;3.14;100.00;95425.00;5014558;28;20542;-48
2021/12/26 05:03:12;;;;;;;12.85;10.32;;;;;;;3.23;100.00;95421.63;5019858;28;20095;-48
2021/12/26 05:05:41;;;;;;;14.65;10.93;;;;;;;3.18;100.00;95423.81;5020688;28;20083;-45
2021/12/26 05:08:09;;;;;;;14.35;10.82;;;;;;;3.27;100.00;95425.66;5023360;28;20074;-49
2021/12/26 05:10:40;;;;;;;14.60;12.18;;;;;;;2.84;100.00;95431.72;5041000;28;20072;-47
2021/12/26 05:13:09;;;;;;;13.55;10.77;;;;;;;3.14;100.00;95432.81;5042521;28;20448;-47
2021/12/26 05:15:37;;;;;;;12.95;10.25;;;;;;;3.13;100.00;95424.16;5020718;28;20069;-44
2021/12/26 05:18:06;;;;;;;15.27;12.07;;;;;;;3.11;100.00;95427.84;5035737;28;20068;-56
2021/12/26 05:20:34;;;;;;;14.13;11.25;;;;;;;3.43;100.00;95427.81;5040823;28;20076;-44
2021/12/26 05:23:04;;;;;;;15.95;11.88;;;;;;;3.13;100.00;95436.34;5040760;28;20060;-43
2021/12/26 05:25:32;;;;;;;13.80;10.27;;;;;;;3.24;100.00;95436.31;5040380;28;20088;-47
2021/12/26 05:28:02;;;;;;;14.40;10.98;;;;;;;3.66;100.00;95438.97;5045026;28;20084;-52
2021/12/26 05:30:31;;;;;;;12.98;10.65;;;;;;;3.46;100.00;95432.78;5039081;28;20069;-50
2021/12/26 05:32:59;;;;;;;13.38;10.32;;;;;;;3.49;100.00;95430.75;5023120;28;20084;-47
2021/12/26 05:35:27;;;;;;;13.60;10.85;;;;;;;3.03;100.00;95437.13;5012200;28;20068;-50
2021/12/26 05:37:56;;;;;;;14.32;11.45;;;;;;;3.18;100.00;95435.03;5017905;28;20077;-50
2021/12/26 05:40:24;;;;;;;15.43;11.15;;;;;;;3.40;100.00;95426.28;5018185;28;20084;-46
2021/12/26 05:42:52;;;;;;;14.82;10.90;;;;;;;3.71;100.00;95426.34;5039440;28;20710;-45
2021/12/26 05:45:22;;;;;;;15.80;12.55;;;;;;;3.13;100.00;95431.13;5016390;28;20535;-52
2021/12/26 05:47:51;;;;;;;16.17;11.95;;;;;;;3.41;100.00;95433.16;5041255;28;20088;-47
2021/12/26 05:50:20;;;;;;;14.35;11.48;;;;;;;3.33;100.00;95422.53;5030685;28;20077;-49
2021/12/26 05:52:49;;;;;;;15.45;12.68;;;;;;;3.11;100.00;95427.84;5026428;28;20048;-54
2021/12/26 05:55:19;;;;;;;14.05;11.15;;;;;;;3.29;100.00;95442.81;5040617;28;20085;-50
2021/12/26 05:57:47;;;;;;;14.55;11.77;;;;;;;3.18;100.00;95434.22;5018654;28;20084;-48
2021/12/26 06:00:18;;;;;;;14.98;11.63;;;;;;;3.00;100.00;95434.75;5013253;28;20069;-46
2021/12/26 06:02:50;;;;;;;13.55;10.65;;;;;;;3.03;100.00;95434.50;5023942;28;20072;-48
2021/12/26 06:05:19;;;;;;;16.35;11.32;;;;;;;3.44;100.00;95438.13;5033148;28;20183;-47
2021/12/26 06:07:48;;;;;;;15.13;11.68;;;;;;;3.54;100.00;95440.78;5022548;28;20072;-45
2021/12/26 06:10:17;;;;;;;15.25;11.73;;;;;;;3.59;100.00;95437.81;5043390;28;20414;-46
2021/12/26 06:12:45;;;;;;;15.52;12.00;;;;;;;3.83;100.00;95435.78;5062877;28;20084;-48
2021/12/26 06:15:14;;;;;;;16.30;12.27;;;;;;;3.86;100.00;95438.13;5042020;28;20064;-49
2021/12/26 06:17:43;;;;;;;15.45;11.68;;;;;;;3.48;100.00;95434.31;5033638;28;20077;-51
2021/12/26 06:20:14;;;;;;;18.13;12.13;;;;;;;3.81;100.00;95437.66;5019840;28;20069;-46
2021/12/26 06:22:44;;;;;;;17.88;12.95;;;;;;;3.64;100.00;95444.28;5022223;28;20075;-49
2021/12/26 06:25:13;;;;;;;15.45;12.20;;;;;;;4.08;100.00;95450.16;5038391;28;20084;-44
2021/12/26 06:27:42;;;;;;;15.00;11.40;;;;;;;3.50;100.00;95444.59;5039153;28;20293;-47
2021/12/26 06:30:12;;;;;;;15.80;11.88;;;;;;;3.80;100.00;95438.63;5032466;28;20068;-46
2021/12/26 06:32:40;;;;;;;17.00;13.27;;;;;;;3.50;100.00;95442.00;5028656;28;20065;-46
2021/12/26 06:35:10;;;;;;;15.73;11.55;;;;;;;3.95;100.00;95442.53;5025251;28;20095;-48
2021/12/26 06:37:40;;;;;;;15.15;11.02;;;;;;;3.59;100.00;95443.84;5042052;28;20071;-49
2021/12/26 06:40:11;;;;;;;15.70;12.23;;;;;;;3.54;100.00;95439.03;5046757;28;20472;-47
2021/12/26 06:42:41;;;;;;;13.75;11.15;;;;;;;3.62;100.00;95441.00;5039513;28;20064;-45
2021/12/26 06:45:10;;;;;;;;;;;;;;;3.48;100.00;95442.13;5041623;28;20093;-54
2021/12/26 06:47:38;;;;;;;14.52;11.68;;;;;;;3.78;100.00;95450.97;5040843;28;19967;-46
2021/12/26 06:50:08;;;;;;;16.38;12.02;;;;;;;3.80;100.00;95452.50;5031703;28;20156;-51
2021/12/26 06:52:36;;;;;;;17.83;11.82;;;;;;;3.92;100.00;95448.03;5017305;28;20077;-45
2021/12/26 06:55:07;;;;;;;14.63;12.18;;;;;;;3.88;100.00;95446.63;5022218;28;20073;-50
2021/12/26 06:57:35;;;;;;;14.10;11.65;;;;;;;3.32;100.00;95452.97;5034913;28;20206;-51
2021/12/26 07:00:06;;;;;;;14.65;12.25;;;;;;;3.22;100.00;95459.88;5018863;28;20073;-51
2021/12/26 07:02:35;;;;;;;14.80;11.55;;;;;;;3.22;100.00;95457.28;5029976;28;20478;-52
2021/12/26 07:05:04;;;;;;;14.32;11.57;;;;;;;3.36;100.00;95465.75;5043182;28;20071;-48
2021/12/26 07:07:33;;;;;;;15.23;12.27;;;;;;;3.19;100.00;95467.94;5038824;28;20073;-47
2021/12/26 07:10:01;;;;;;;15.95;12.25;;;;;;;3.85;100.00;95465.13;5014758;28;20452;-51
2021/12/26 07:12:31;;;;;;;15.68;13.00;;;;;;;3.43;100.00;95472.94;5017119;28;20080;-48
2021/12/26 07:14:59;;;;;;;15.55;12.50;;;;;;;3.60;100.00;95471.56;5008677;28;20076;-51
2021/12/26 07:17:28;;;;;;;16.52;12.63;;;;;;;3.50;100.00;95471.47;5019494;28;20437;-49
2021/12/26 07:19:56;;;;;;;16.00;12.13;;;;;;;4.03;100.00;95476.66;5021022;28;20041;-45
2021/12/26 07:22:25;;;;;;;16.13;12.55;;;;;;;3.66;100.00;95478.06;5018144;28;20069;-45
2021/12/26 07:24:53;;;;;;;18.70;12.18;;;;;;;3.57;100.00;95480.44;5042935;28;20084;-53
2021/12/26 07:27:22;;;;;;;15.15;11.80;;;;;;;3.83;100.00;95479.28;5042988;28;20080;-46
2021/12/26 07:29:52;;;;;;;16.60;12.27;;;;;;;3.71;100.00;95478.50;5030743;28;20072;-48
2021/12/26 07:32:20;;;;;;;16.83;13.68;;;;;;;3.11;100.00;95483.38;5029927;28;20061;-50
2021/12/26 07:34:49;;;;;;;15.43;12.90;;;;;;;3.49;100.00;95482.88;5042614;28;20064;-49
2021/12/26 07:37:18;;;;;;;13.93;11.27;;;;;;;3.79;100.00;95487.34;5014567;28;20546;-48
2021/12/26 07:39:46;;;;;;;14.85;10.93;;;;;;;3.87;100.00;95480.66;5041715;28;20087;-45
2021/12/26 07:42:15;;;;;;;16.40;12.60;;;;;;;3.57;100.00;95496.09;5018306;28;20088;-52
2021/12/26 07:44:43;;;;;;;15.20;12.55;;;;;;;3.64;100.00;95496.41;5029090;28;20071;-52
2021/12/26 07:47:13;;;;;;;14.43;10.85;;;;;;;3.92;100.00;95492.38;5043451;28;20064;-45
2021/12/26 07:49:42;;;;;;;16.98;12.43;;;;;;;3.45;100.00;95497.09;5050527;28;20064;-44
2021/12/26 07:52:14;;;;;;;15.38;11.60;;;;;;;3.87;100.00;95491.91;5043065;28;20092;-47
2021/12/26 07:54:44;;;;;;;18.83;12.50;;;;;;;3.65;100.00;95492.88;5043733;28;20477;-46
2021/12/26 07:57:13;;;;;;;15.68;12.82;;;;;;;3.55;100.00;95495.41;5052000;28;20064;-47
2021/12/26 07:59:42;;;;;;;18.45;13.60;;;;;;;3.66;100.00;95491.09;5038271;28;20069;-47
2021/12/26 08:02:14;;;;;;;19.02;12.38;;;;;;;3.64;100.00;95493.00;5043940;28;20068;-48
2021/12/26 08:04:44;;;;;;;15.05;10.95;;;;;;;4.21;100.00;95494.31;5038643;28;20077;-46
2021/12/26 08:07:12;;;;;;;15.38;12.18;;;;;;;4.10;100.00;95491.81;5042507;28;20077;-48
2021/12/26 08:09:41;;;;;;;17.25;13.77;;;;;;;3.84;100.00;95497.38;5040196;28;20444;-47
2021/12/26 08:12:10;;;;;;;15.52;11.77;;;;;;;3.84;100.00;95492.16;5040031;28;20315;-47
2021/12/26 08:14:39;;;;;;;15.32;11.80;;;;;;;3.87;100.00;95497.13;5029500;28;20591;-49
2021/12/26 08:17:07;;;;;;;15.90;12.43;;;;;;;3.61;100.00;95495.84;5025694;28;20507;-51
2021/12/26 08:19:37;;;;;;;16.60;12.27;;;;;;;3.91;100.00;95498.53;5018935;28;20519;-51
2021/12/26 08:22:06;;;;;;;15.57;12.45;;;;;;;4.04;100.00;95495.72;5043687;28;20505;-49
2021/12/26 08:24:34;;;;;;;17.95;13.25;;;;;;;3.67;100.00;95500.56;5042414;28;20061;-44
2021/12/26 08:27:02;;;;;;;17.83;13.27;;;;;;;3.88;100.00;95495.34;5022951;28;20064;-51
2021/12/26 08:29:31;;;;;;;17.40;12.65;;;;;;;4.47;100.00;95497.31;5023059;28;20103;-50
2021/12/26 08:32:00;;;;;;;15.43;11.85;;;;;;;3.66;100.00;95496.31;5024399;28;20073;-54
2021/12/26 08:34:29;;;;;;;16.15;13.13;;;;;;;3.60;100.00;95496.81;5015720;28;20455;-57
2021/12/26 08:37:04;;;;;;;17.40;13.43;;;;;;;4.32;100.00;95501.25;5024592;28;20076;-50
2021/12/26 08:39:35;;;;;;;16.45;12.48;;;;;;;4.19;100.00;95502.25;5039521;28;20451;-55
2021/12/26 08:42:04;;;;;;;18.65;13.45;;;;;;;4.09;100.00;95503.16;5025615;28;20064;-54
2021/12/26 08:44:33;;;;;;;16.88;11.95;;;;;;;4.00;100.00;95495.16;5018370;28;20570;-46
2021/12/26 08:47:03;;;;;;;18.23;13.10;;;;;;;4.16;100.00;95504.31;5013699;28;20065;-54
2021/12/26 08:49:31;;;;;;;18.08;12.20;;;;;;;4.35;100.00;95495.75;5023967;28;20100;-46
2021/12/26 08:52:02;;;;;;;19.23;12.80;;;;;;;4.00;100.00;95503.00;5018509;28;20065;-51
2021/12/26 08:54:33;;;;;;;19.33;12.50;;;;;;;4.15;100.00;95505.28;5021363;28;20135;-46
2021/12/26 08:57:07;;;;;;;17.58;12.75;;;;;;;4.39;100.00;95505.81;5020887;28;20442;-50
2021/12/26 08:59:36;;;;;;;18.42;13.27;;;;;;;4.39;100.00;95505.81;5019009;28;20069;-47
2021/12/26 09:02:07;;;;;;;15.80;12.23;;;;;;;4.49;100.00;95511.91;5018937;28;20099;-54
2021/12/26 09:04:36;;;;;;;18.27;12.05;;;;;;;4.78;100.00;95508.56;5021339;28;20080;-56
2021/12/26 09:07:07;;;;;;;19.50;13.50;;;;;;;4.41;100.00;95518.75;5019680;28;20452;-53
2021/12/26 09:09:35;;;;;;;;;;;;;;;4.48;100.00;95514.66;5018120;28;20066;-56
2021/12/26 09:12:05;;;;;;;17.58;12.35;;;;;;;4.55;100.00;95512.34;5035832;28;19959;-54
2021/12/26 09:14:34;;;;;;;16.98;12.45;;;;;;;4.95;100.00;95515.75;5038845;28;20102;-51
2021/12/26 09:17:03;;;;;;;18.38;13.05;;;;;;;4.47;100.00;95516.44;5043478;28;20722;-52
2021/12/26 09:19:33;;;;;;;21.40;13.53;;;;;;;4.91;100.00;95517.00;5046130;28;20065;-57
2021/12/26 09:22:08;;;;;;;19.13;12.45;;;;;;;4.64;100.00;95521.97;5047138;28;20060;-55
2021/12/26 09:24:36;;;;;;;17.63;12.68;;;;;;;4.44;100.00;95526.28;5042335;28;20072;-55
2021/12/26 09:27:05;;;;;;;18.73;12.75;;;;;;;4.88;100.00;95526.88;5044468;28;20518;-56
2021/12/26 09:29:34;;;;;;;19.40;13.00;;;;;;;5.40;100.00;95524.94;5041083;28;20056;-49
2021/12/26 09:32:03;;;;;;;21.88;13.73;;;;;;;4.84;100.00;95526.31;5042807;28;20766;-54
2021/12/26 09:34:33;;;;;;;22.92;14.10;;;;;;;4.81;100.00;95525.75;5042685;28;20084;-55
2021/12/26 09:37:03;;;;;;;20.42;13.60;;;;;;;4.91;100.00;95527.44;5046216;28;20119;-50
2021/12/26 09:39:34;;;;;;;19.98;13.70;;;;;;;4.70;100.00;95537.94;5043312;28;20037;-48
2021/12/26 09:42:03;;;;;;;23.50;14.13;;;;;;;5.19;100.00;95533.69;5041534;28;20556;-51
2021/12/26 09:44:32;;;;;;;22.35;13.95;;;;;;;4.91;100.00;95537.06;5040223;28;20132;-51
2021/12/26 09:47:00;;;;;;;22.67;13.77;;;;;;;5.48;100.00;95531.16;5042236;28;20061;-51
2021/12/26 09:49:28;;;;;;;20.50;12.80;;;;;;;5.22;100.00;95535.22;5041198;28;20072;-51
2021/12/26 09:51:57;;;;;;;22.35;13.02;;;;;;;5.37;100.00;95527.84;5045198;28;20080;-49
2021/12/26 09:54:25;;;;;;;19.15;12.90;;;;;;;4.92;100.00;95525.66;5019234;28;20080;-51
2021/12/26 09:56:55;;;;;;;20.63;13.52;;;;;;;4.91;100.00;95524.00;5033229;28;20068;-56
2021/12/26 09:59:27;;;;;;;20.00;13.50;;;;;;;5.15;100.00;95521.88;5028986;28;20099;-50
2021/12/26 10:01:57;;;;;;;21.20;13.07;;;;;;;4.66;100.00;95520.91;5016147;28;20528;-53
2021/12/26 10:04:46;;;;;;;22.27;14.05;;;;;;;4.43;100.00;95519.41;5020902;28;20363;-49
2021/12/26 10:07:17;;;;;;;25.40;14.05;;;;;;;4.76;100.00;95510.50;5045289;28;20091;-47
2021/12/26 10:09:47;;;;;;;19.98;14.23;;;;;;;5.43;100.00;95506.38;5020706;28;20468;-53
2021/12/26 10:12:20;;;;;;;20.02;13.82;;;;;;;5.18;100.00;95503.31;5039508;28;20068;-53
2021/12/26 10:14:51;;;;;;;21.73;13.30;;;;;;;4.72;100.00;95512.53;5019910;28;20551;-46
2021/12/26 10:17:23;;;;;;;;;;;;;;;5.16;100.00;95507.00;5019874;28;20065;-54
2021/12/26 10:19:53;;;;;;;26.05;13.55;;;;;;;5.40;100.00;95499.63;5020741;28;19968;-48
2021/12/26 10:22:25;;;;;;;20.70;12.90;;;;;;;5.21;100.00;95502.22;5023018;28;20081;-52
2021/12/26 10:24:57;;;;;;;20.92;13.73;;;;;;;5.51;100.00;95496.06;5037979;28;20091;-50
2021/12/26 10:27:31;;;;;;;23.85;13.02;;;;;;;5.56;100.00;95498.25;5022916;28;20076;-49
2021/12/26 10:30:01;;;;;;;20.38;13.88;;;;;;;5.24;100.00;95501.94;5013657;28;20693;-49
2021/12/26 10:32:33;;;;;;;22.67;14.65;;;;;;;4.55;100.00;95507.13;5017142;28;20077;-55
2021/12/26 10:35:05;;;;;;;22.75;13.45;;;;;;;5.11;100.00;95496.16;5015557;28;20076;-53
2021/12/26 10:37:38;;;;;;;27.35;14.95;;;;;;;4.61;100.00;95506.56;5019417;28;20083;-53
2021/12/26 10:40:10;;;;;;;22.98;13.65;;;;;;;5.35;100.00;95503.63;5038430;28;20089;-55
2021/12/26 10:42:45;;;;;;;19.83;13.73;;;;;;;5.78;100.00;95499.75;5034550;28;20105;-51
2021/12/26 10:45:16;;;;;;;22.55;14.20;;;;;;;5.15;100.00;95498.34;5021482;28;20067;-53
2021/12/26 10:47:50;;;;;;;23.77;14.75;;;;;;;5.19;100.00;95501.50;5015529;28;20076;-51
2021/12/26 10:50:20;;;;;;;21.48;15.25;;;;;;;4.79;100.00;95502.41;5027849;28;20056;-52
2021/12/26 10:52:52;;;;;;;26.75;14.93;;;;;;;5.04;100.00;95508.09;5043875;28;20038;-49
2021/12/26 10:55:23;;;;;;;25.02;16.35;;;;;;;5.07;100.00;95506.03;5040208;28;20081;-48
2021/12/26 10:57:54;;;;;;;28.83;15.73;;;;;;;5.00;100.00;95503.13;5044846;28;20080;-46
2021/12/26 11:00:24;;;;;;;27.42;15.77;;;;;;;5.53;100.00;95499.34;5040356;28;20061;-53
2021/12/26 11:02:55;;;;;;;23.67;14.73;;;;;;;5.77;100.00;95504.16;5043512;28;20083;-54
2021/12/26 11:05:29;;;;;;;26.23;16.45;;;;;;;5.06;100.00;95498.31;5027547;28;20629;-57
2021/12/26 11:08:00;;;;;;;21.27;13.48;;;;;;;5.39;100.00;95497.97;5015981;28;20056;-53
2021/12/26 11:10:32;;;;;;;27.63;15.77;;;;;;;5.07;100.00;95500.00;5021507;28;20081;-49
2021/12/26 11:13:05;;;;;;;24.90;14.93;;;;;;;5.54;100.00;95490.56;5041009;28;20531;-54
2021/12/26 11:15:35;;;;;;;26.80;15.50;;;;;;;5.40;100.00;95493.56;5027102;28;20072;-47
2021/12/26 11:18:05;;;;;;;24.65;15.00;;;;;;;5.81;100.00;95491.63;5036324;28;20072;-47
2021/12/26 11:20:36;;;;;;;25.73;15.70;;;;;;;5.79;100.00;95490.97;5038374;28;20079;-51
2021/12/26 11:23:09;;;;;;;28.13;16.33;;;;;;;5.29;100.00;95488.47;5034151;28;20611;-45
2021/12/26 11:25:40;;;;;;;23.27;13.52;;;;;;;5.17;100.00;95485.16;5033108;28;20073;-50
2021/12/26 11:28:11;;;;;;;29.33;15.68;;;;;;;5.16;100.00;95491.31;5024235;28;20532;-53
2021/12/26 11:30:39;;;;;;;;;;;;;;;4.85;100.00;95483.59;5014092;28;20066;-49
2021/12/26 11:33:08;;;;;;;23.27;15.20;;;;;;;5.00;100.00;95486.66;5016133;28;19979;-53